sensor_id;sensor_type;location;lat;lon;timestamp;pressure;altitude;pressure_sealevel;temperature;humidity
62025;BME280;47978;49.118;12.146;2024-02-26T00:03:03;95875.16;;;0.06;100.00
62025;BME280;47978;49.118;12.146;2024-02-26T00:07:06;95871.34;;;0.07;100.00
62025;BME280;47978;49.118;12.146;2024-02-26T00:11:08;95875.97;;;0.02;100.00
62025;BME280;47978;49.118;12.146;2024-02-26T00:15:10;95868.00;;;-0.39;100.00
62025;BME280;47978;49.118;12.146;2024-02-26T00:19:12;95867.78;;;-0.58;100.00
62025;BME280;47978;49.118;12.146;2024-02-26T00:23:16;95864.81;;;-0.62;100.00
62025;BME280;47978;49.118;12.146;2024-02-26T00:27:17;95862.00;;;-0.31;100.00
62025;BME280;47978;49.118;12.146;2024-02-26T00:31:19;95864.63;;;-0.11;100.00
62025;BME280;47978;49.118;12.146;2024-02-26T00:35:21;95860.00;;;-0.05;100.00
62025;BME280;47978;49.118;12.146;2024-02-26T00:39:23;95865.53;;;0.24;100.00
62025;BME280;47978;49.118;12.146;2024-02-26T00:43:25;95870.84;;;-0.05;100.00
62025;BME280;47978;49.118;12.146;2024-02-26T00:47:26;95864.41;;;0.30;100.00
62025;BME280;47978;49.118;12.146;2024-02-26T00:51:28;95873.13;;;0.27;100.00
62025;BME280;47978;49.118;12.146;2024-02-26T00:55:31;95874.06;;;0.02;100.00
62025;BME280;47978;49.118;12.146;2024-02-26T00:59:33;95863.31;;;-0.24;100.00
62025;BME280;47978;49.118;12.146;2024-02-26T01:03:34;95863.94;;;-0.42;100.00
62025;BME280;47978;49.118;12.146;2024-02-26T01:07:36;95854.75;;;-0.61;100.00
62025;BME280;47978;49.118;12.146;2024-02-26T01:11:39;95851.53;;;-0.84;100.00
62025;BME280;47978;49.118;12.146;2024-02-26T01:15:41;95846.59;;;-0.51;100.00
62025;BME280;47978;49.118;12.146;2024-02-26T01:19:43;95851.78;;;-0.75;100.00
62025;BME280;47978;49.118;12.146;2024-02-26T01:23:44;95843.34;;;-0.63;100.00
62025;BME280;47978;49.118;12.146;2024-02-26T01:27:47;95853.63;;;-0.50;100.00
62025;BME280;47978;49.118;12.146;2024-02-26T01:31:49;95860.72;;;-0.59;100.00
62025;BME280;47978;49.118;12.146;2024-02-26T01:35:50;95853.44;;;-0.79;100.00
62025;BME280;47978;49.118;12.146;2024-02-26T01:39:52;95852.13;;;-1.13;100.00
62025;BME280;47978;49.118;12.146;2024-02-26T01:43:55;95850.50;;;-1.29;100.00
62025;BME280;47978;49.118;12.146;2024-02-26T01:47:56;95854.50;;;-0.85;100.00
62025;BME280;47978;49.118;12.146;2024-02-26T01:51:58;95859.63;;;-0.63;100.00
62025;BME280;47978;49.118;12.146;2024-02-26T01:56:00;95876.50;;;-0.92;100.00
62025;BME280;47978;49.118;12.146;2024-02-26T02:00:04;95865.41;;;-1.06;100.00
62025;BME280;47978;49.118;12.146;2024-02-26T02:04:06;95875.19;;;-1.30;100.00
62025;BME280;47978;49.118;12.146;2024-02-26T02:08:08;95872.75;;;-1.22;100.00
62025;BME280;47978;49.118;12.146;2024-02-26T02:12:11;95864.31;;;-1.05;100.00
62025;BME280;47978;49.118;12.146;2024-02-26T02:16:14;95859.69;;;-0.79;100.00
62025;BME280;47978;49.118;12.146;2024-02-26T02:20:17;95868.66;;;-1.34;100.00
62025;BME280;47978;49.118;12.146;2024-02-26T02:24:20;95858.06;;;-1.51;100.00
62025;BME280;47978;49.118;12.146;2024-02-26T02:28:22;95860.25;;;-1.38;100.00
62025;BME280;47978;49.118;12.146;2024-02-26T02:32:24;95845.63;;;-1.42;100.00
62025;BME280;47978;49.118;12.146;2024-02-26T02:36:26;95852.66;;;-1.26;100.00
62025;BME280;47978;49.118;12.146;2024-02-26T02:40:29;95846.41;;;-1.31;100.00
62025;BME280;47978;49.118;12.146;2024-02-26T02:44:31;95848.31;;;-1.52;100.00
62025;BME280;47978;49.118;12.146;2024-02-26T02:48:32;95830.44;;;-1.28;100.00
62025;BME280;47978;49.118;12.146;2024-02-26T02:52:34;95821.47;;;-1.18;100.00
62025;BME280;47978;49.118;12.146;2024-02-26T02:56:37;95828.53;;;-1.48;100.00
62025;BME280;47978;49.118;12.146;2024-02-26T03:00:39;95835.88;;;-1.33;100.00
62025;BME280;47978;49.118;12.146;2024-02-26T03:04:41;95820.16;;;-1.56;100.00
62025;BME280;47978;49.118;12.146;2024-02-26T03:08:42;95824.19;;;-1.49;100.00
62025;BME280;47978;49.118;12.146;2024-02-26T03:12:45;95817.66;;;-0.97;100.00
62025;BME280;47978;49.118;12.146;2024-02-26T03:16:47;95825.47;;;-0.75;100.00
62025;BME280;47978;49.118;12.146;2024-02-26T03:20:49;95827.97;;;-0.94;100.00
62025;BME280;47978;49.118;12.146;2024-02-26T03:24:51;95824.97;;;-0.87;100.00
62025;BME280;47978;49.118;12.146;2024-02-26T03:28:54;95836.28;;;-0.59;100.00
62025;BME280;47978;49.118;12.146;2024-02-26T03:32:55;95842.28;;;-0.73;100.00
62025;BME280;47978;49.118;12.146;2024-02-26T03:36:57;95834.75;;;-1.06;100.00
62025;BME280;47978;49.118;12.146;2024-02-26T03:40:59;95833.69;;;-1.36;100.00
62025;BME280;47978;49.118;12.146;2024-02-26T03:45:02;95829.63;;;-1.59;100.00
62025;BME280;47978;49.118;12.146;2024-02-26T03:49:04;95826.06;;;-1.75;100.00
62025;BME280;47978;49.118;12.146;2024-02-26T03:53:06;95837.19;;;-1.51;100.00
62025;BME280;47978;49.118;12.146;2024-02-26T03:57:07;95837.47;;;-1.01;100.00
62025;BME280;47978;49.118;12.146;2024-02-26T04:01:10;95828.53;;;-1.43;100.00
62025;BME280;47978;49.118;12.146;2024-02-26T04:05:13;95809.78;;;-1.08;100.00
62025;BME280;47978;49.118;12.146;2024-02-26T04:09:14;95827.13;;;-0.84;100.00
62025;BME280;47978;49.118;12.146;2024-02-26T04:13:17;95827.94;;;-0.83;100.00
62025;BME280;47978;49.118;12.146;2024-02-26T04:17:20;95823.84;;;-0.76;100.00
62025;BME280;47978;49.118;12.146;2024-02-26T04:21:21;95820.66;;;-1.24;100.00
62025;BME280;47978;49.118;12.146;2024-02-26T04:25:23;95813.03;;;-0.91;100.00
62025;BME280;47978;49.118;12.146;2024-02-26T04:29:25;95818.69;;;-0.77;100.00
62025;BME280;47978;49.118;12.146;2024-02-26T04:33:28;95818.47;;;-0.91;100.00
62025;BME280;47978;49.118;12.146;2024-02-26T04:37:29;95817.69;;;-1.38;100.00
62025;BME280;47978;49.118;12.146;2024-02-26T04:41:31;95826.63;;;-1.52;100.00
62025;BME280;47978;49.118;12.146;2024-02-26T04:45:33;95826.06;;;-0.98;100.00
62025;BME280;47978;49.118;12.146;2024-02-26T04:49:36;95828.78;;;-1.54;100.00
62025;BME280;47978;49.118;12.146;2024-02-26T04:53:37;95820.63;;;-2.00;100.00
62025;BME280;47978;49.118;12.146;2024-02-26T04:57:39;95821.16;;;-1.98;100.00
62025;BME280;47978;49.118;12.146;2024-02-26T05:01:40;95830.38;;;-1.89;100.00
62025;BME280;47978;49.118;12.146;2024-02-26T05:05:44;95825.56;;;-1.46;100.00
62025;BME280;47978;49.118;12.146;2024-02-26T05:09:46;95828.00;;;-1.45;100.00
62025;BME280;47978;49.118;12.146;2024-02-26T05:13:48;95830.16;;;-1.11;100.00
62025;BME280;47978;49.118;12.146;2024-02-26T05:17:49;95832.03;;;-1.06;100.00
62025;BME280;47978;49.118;12.146;2024-02-26T05:21:52;95842.63;;;-1.36;100.00
62025;BME280;47978;49.118;12.146;2024-02-26T05:25:54;95846.13;;;-1.20;100.00
62025;BME280;47978;49.118;12.146;2024-02-26T05:29:55;95855.34;;;-1.05;100.00
62025;BME280;47978;49.118;12.146;2024-02-26T05:33:57;95862.94;;;-0.97;100.00
62025;BME280;47978;49.118;12.146;2024-02-26T05:38:00;95862.41;;;-1.09;100.00
62025;BME280;47978;49.118;12.146;2024-02-26T05:42:02;95876.25;;;-1.47;100.00
62025;BME280;47978;49.118;12.146;2024-02-26T05:46:04;95857.53;;;-1.43;100.00
62025;BME280;47978;49.118;12.146;2024-02-26T05:50:06;95862.94;;;-1.69;100.00
62025;BME280;47978;49.118;12.146;2024-02-26T05:54:09;95861.88;;;-1.68;100.00
62025;BME280;47978;49.118;12.146;2024-02-26T05:58:11;95856.94;;;-1.86;100.00
62025;BME280;47978;49.118;12.146;2024-02-26T06:02:13;95855.91;;;-1.54;100.00
62025;BME280;47978;49.118;12.146;2024-02-26T06:06:14;95868.13;;;-1.26;100.00
62025;BME280;47978;49.118;12.146;2024-02-26T06:10:17;95874.34;;;-1.16;100.00
62025;BME280;47978;49.118;12.146;2024-02-26T06:14:20;95878.09;;;-1.78;100.00
62025;BME280;47978;49.118;12.146;2024-02-26T06:18:21;95873.94;;;-2.06;100.00
62025;BME280;47978;49.118;12.146;2024-02-26T06:22:23;95867.97;;;-2.08;100.00
62025;BME280;47978;49.118;12.146;2024-02-26T06:26:26;95870.81;;;-1.67;100.00
62025;BME280;47978;49.118;12.146;2024-02-26T06:30:27;95868.88;;;-1.82;100.00
62025;BME280;47978;49.118;12.146;2024-02-26T06:34:29;95871.00;;;-1.89;100.00
62025;BME280;47978;49.118;12.146;2024-02-26T06:38:31;95866.84;;;-2.28;100.00
62025;BME280;47978;49.118;12.146;2024-02-26T06:42:34;95878.03;;;-1.98;100.00
62025;BME280;47978;49.118;12.146;2024-02-26T06:46:35;95890.34;;;-1.34;100.00
62025;BME280;47978;49.118;12.146;2024-02-26T06:50:37;95903.38;;;-1.01;100.00
62025;BME280;47978;49.118;12.146;2024-02-26T06:54:39;95900.13;;;-1.33;100.00
62025;BME280;47978;49.118;12.146;2024-02-26T06:58:42;95898.22;;;-1.18;100.00
62025;BME280;47978;49.118;12.146;2024-02-26T07:02:43;95903.09;;;-0.79;100.00
62025;BME280;47978;49.118;12.146;2024-02-26T07:06:45;95902.81;;;-0.77;100.00
62025;BME280;47978;49.118;12.146;2024-02-26T07:10:46;95906.28;;;-0.46;100.00
62025;BME280;47978;49.118;12.146;2024-02-26T07:14:49;95918.72;;;-0.25;100.00
62025;BME280;47978;49.118;12.146;2024-02-26T07:18:51;95925.75;;;-0.08;100.00
62025;BME280;47978;49.118;12.146;2024-02-26T07:22:53;95932.69;;;-0.82;100.00
62025;BME280;47978;49.118;12.146;2024-02-26T07:26:54;95937.00;;;-0.92;100.00
62025;BME280;47978;49.118;12.146;2024-02-26T07:30:57;95939.75;;;-0.97;100.00
62025;BME280;47978;49.118;12.146;2024-02-26T07:34:59;95932.09;;;-0.74;100.00
62025;BME280;47978;49.118;12.146;2024-02-26T07:39:01;95923.22;;;0.06;100.00
62025;BME280;47978;49.118;12.146;2024-02-26T07:43:03;95930.66;;;0.50;100.00
62025;BME280;47978;49.118;12.146;2024-02-26T07:47:06;95935.03;;;0.85;100.00
62025;BME280;47978;49.118;12.146;2024-02-26T07:51:07;95935.94;;;0.75;100.00
62025;BME280;47978;49.118;12.146;2024-02-26T07:55:09;95943.75;;;0.87;100.00
62025;BME280;47978;49.118;12.146;2024-02-26T07:59:10;95946.84;;;1.09;100.00
62025;BME280;47978;49.118;12.146;2024-02-26T08:03:13;95953.25;;;1.29;100.00
62025;BME280;47978;49.118;12.146;2024-02-26T08:07:15;95958.78;;;1.13;100.00
62025;BME280;47978;49.118;12.146;2024-02-26T08:11:18;95953.56;;;0.83;100.00
62025;BME280;47978;49.118;12.146;2024-02-26T08:15:20;95953.66;;;1.41;100.00
62025;BME280;47978;49.118;12.146;2024-02-26T08:19:23;95953.13;;;1.39;100.00
62025;BME280;47978;49.118;12.146;2024-02-26T08:23:24;95953.97;;;2.84;100.00
62025;BME280;47978;49.118;12.146;2024-02-26T08:27:26;95949.06;;;3.70;94.88
62025;BME280;47978;49.118;12.146;2024-02-26T08:31:28;95954.09;;;4.37;91.09
62025;BME280;47978;49.118;12.146;2024-02-26T08:35:31;95954.59;;;4.53;91.68
62025;BME280;47978;49.118;12.146;2024-02-26T08:39:32;95952.16;;;4.10;96.22
62025;BME280;47978;49.118;12.146;2024-02-26T08:43:34;95932.69;;;3.98;97.88
62025;BME280;47978;49.118;12.146;2024-02-26T08:47:35;95937.56;;;5.29;92.51
62025;BME280;47978;49.118;12.146;2024-02-26T08:51:42;95951.09;;;4.89;95.12
62025;BME280;47978;49.118;12.146;2024-02-26T08:55:44;95951.34;;;4.65;95.27
62025;BME280;47978;49.118;12.146;2024-02-26T08:59:46;95951.38;;;5.01;94.01
62025;BME280;47978;49.118;12.146;2024-02-26T09:03:47;95960.06;;;5.03;93.36
62025;BME280;47978;49.118;12.146;2024-02-26T09:07:50;95952.09;;;4.93;94.03
62025;BME280;47978;49.118;12.146;2024-02-26T09:11:52;95950.88;;;4.99;92.98
62025;BME280;47978;49.118;12.146;2024-02-26T09:15:54;95948.28;;;6.06;90.25
62025;BME280;47978;49.118;12.146;2024-02-26T09:19:55;95950.84;;;6.12;87.55
62025;BME280;47978;49.118;12.146;2024-02-26T09:23:58;95954.31;;;5.95;87.92
62025;BME280;47978;49.118;12.146;2024-02-26T09:28:00;95956.69;;;5.88;88.24
62025;BME280;47978;49.118;12.146;2024-02-26T09:32:03;95949.38;;;5.83;87.55
62025;BME280;47978;49.118;12.146;2024-02-26T09:36:05;95950.09;;;6.20;87.36
62025;BME280;47978;49.118;12.146;2024-02-26T09:40:09;95951.38;;;6.62;86.74
62025;BME280;47978;49.118;12.146;2024-02-26T09:44:11;95953.38;;;6.88;84.44
62025;BME280;47978;49.118;12.146;2024-02-26T09:48:17;95947.47;;;7.12;82.30
62025;BME280;47978;49.118;12.146;2024-02-26T09:52:19;95952.78;;;7.26;80.28
62025;BME280;47978;49.118;12.146;2024-02-26T09:56:23;95950.69;;;7.31;80.01
62025;BME280;47978;49.118;12.146;2024-02-26T10:00:24;95963.97;;;7.47;79.36
62025;BME280;47978;49.118;12.146;2024-02-26T10:04:27;95958.63;;;7.24;78.48
62025;BME280;47978;49.118;12.146;2024-02-26T10:08:29;95954.06;;;7.28;78.66
62025;BME280;47978;49.118;12.146;2024-02-26T10:12:33;95946.66;;;7.37;79.14
62025;BME280;47978;49.118;12.146;2024-02-26T10:16:35;95961.22;;;7.47;78.55
62025;BME280;47978;49.118;12.146;2024-02-26T10:20:36;95957.16;;;7.70;77.84
62025;BME280;47978;49.118;12.146;2024-02-26T10:24:38;95967.41;;;8.25;77.34
62025;BME280;47978;49.118;12.146;2024-02-26T10:28:42;95969.91;;;8.01;77.06
62025;BME280;47978;49.118;12.146;2024-02-26T10:32:44;95979.25;;;8.17;75.18
62025;BME280;47978;49.118;12.146;2024-02-26T10:36:46;95976.84;;;8.07;73.94
62025;BME280;47978;49.118;12.146;2024-02-26T10:40:55;95978.75;;;8.15;74.46
62025;BME280;47978;49.118;12.146;2024-02-26T10:44:58;95972.09;;;8.25;74.27
62025;BME280;47978;49.118;12.146;2024-02-26T10:49:01;95955.88;;;8.41;73.08
62025;BME280;47978;49.118;12.146;2024-02-26T10:53:05;95959.00;;;8.13;72.34
62025;BME280;47978;49.118;12.146;2024-02-26T10:57:08;95954.72;;;8.33;73.62
62025;BME280;47978;49.118;12.146;2024-02-26T11:01:12;95948.34;;;8.59;74.21
62025;BME280;47978;49.118;12.146;2024-02-26T11:05:14;95955.66;;;8.84;73.55
62025;BME280;47978;49.118;12.146;2024-02-26T11:09:16;95954.09;;;9.04;73.10
62025;BME280;47978;49.118;12.146;2024-02-26T11:13:19;95950.84;;;9.02;71.64
62025;BME280;47978;49.118;12.146;2024-02-26T11:17:25;95954.59;;;9.48;68.43
62025;BME280;47978;49.118;12.146;2024-02-26T11:21:27;95951.94;;;9.73;68.36
62025;BME280;47978;49.118;12.146;2024-02-26T11:25:29;95953.97;;;9.63;67.25
62025;BME280;47978;49.118;12.146;2024-02-26T11:29:33;95935.75;;;10.17;59.92
62025;BME280;47978;49.118;12.146;2024-02-26T11:33:37;95947.50;;;10.26;64.48
62025;BME280;47978;49.118;12.146;2024-02-26T11:37:39;95931.94;;;10.09;62.02
62025;BME280;47978;49.118;12.146;2024-02-26T11:41:45;95939.31;;;10.17;64.35
62025;BME280;47978;49.118;12.146;2024-02-26T11:45:50;95935.69;;;9.92;64.08
62025;BME280;47978;49.118;12.146;2024-02-26T11:49:53;95940.28;;;9.88;62.60
62025;BME280;47978;49.118;12.146;2024-02-26T11:53:55;95941.09;;;9.88;64.96
62025;BME280;47978;49.118;12.146;2024-02-26T11:57:56;95943.53;;;10.02;64.42
62025;BME280;47978;49.118;12.146;2024-02-26T12:01:58;95950.34;;;10.05;64.10
62025;BME280;47978;49.118;12.146;2024-02-26T12:06:06;95949.88;;;10.03;62.53
62025;BME280;47978;49.118;12.146;2024-02-26T12:10:24;95962.22;;;9.84;64.26
62025;BME280;47978;49.118;12.146;2024-02-26T12:14:26;95959.13;;;9.86;65.76
62025;BME280;47978;49.118;12.146;2024-02-26T12:18:28;95957.06;;;9.83;65.11
62025;BME280;47978;49.118;12.146;2024-02-26T12:22:32;95950.94;;;9.77;66.71
62025;BME280;47978;49.118;12.146;2024-02-26T12:26:34;95957.81;;;10.04;64.55
62025;BME280;47978;49.118;12.146;2024-02-26T12:30:35;95964.00;;;9.68;66.25
62025;BME280;47978;49.118;12.146;2024-02-26T12:34:37;95968.78;;;9.59;66.70
62025;BME280;47978;49.118;12.146;2024-02-26T12:38:41;95966.78;;;9.68;66.61
62025;BME280;47978;49.118;12.146;2024-02-26T12:42:43;95975.38;;;9.66;67.88
62025;BME280;47978;49.118;12.146;2024-02-26T12:46:44;95972.63;;;9.45;68.10
62025;BME280;47978;49.118;12.146;2024-02-26T12:50:46;95987.16;;;9.55;68.84
62025;BME280;47978;49.118;12.146;2024-02-26T12:54:49;95984.72;;;9.53;67.33
62025;BME280;47978;49.118;12.146;2024-02-26T12:58:51;95992.34;;;9.56;66.78
62025;BME280;47978;49.118;12.146;2024-02-26T13:02:54;95997.03;;;9.56;66.25
62025;BME280;47978;49.118;12.146;2024-02-26T13:06:56;95994.75;;;9.79;65.84
62025;BME280;47978;49.118;12.146;2024-02-26T13:11:00;95994.97;;;10.28;64.42
62025;BME280;47978;49.118;12.146;2024-02-26T13:15:02;95987.47;;;9.95;65.16
62025;BME280;47978;49.118;12.146;2024-02-26T13:19:10;95983.25;;;9.77;65.88
62025;BME280;47978;49.118;12.146;2024-02-26T13:23:12;95992.34;;;10.31;62.78
62025;BME280;47978;49.118;12.146;2024-02-26T13:27:22;95994.13;;;9.73;64.45
62025;BME280;47978;49.118;12.146;2024-02-26T13:31:24;95986.38;;;9.87;62.83
62025;BME280;47978;49.118;12.146;2024-02-26T13:35:25;95990.09;;;9.91;63.13
62025;BME280;47978;49.118;12.146;2024-02-26T13:39:28;96008.91;;;9.77;61.97
62025;BME280;47978;49.118;12.146;2024-02-26T13:43:31;96012.75;;;9.85;61.16
62025;BME280;47978;49.118;12.146;2024-02-26T13:47:32;96014.38;;;9.98;60.76
62025;BME280;47978;49.118;12.146;2024-02-26T13:51:34;96011.91;;;10.05;60.70
62025;BME280;47978;49.118;12.146;2024-02-26T13:55:37;95996.66;;;9.66;62.41
62025;BME280;47978;49.118;12.146;2024-02-26T13:59:40;96005.44;;;9.38;63.12
62025;BME280;47978;49.118;12.146;2024-02-26T14:03:41;96015.88;;;9.33;63.67
62025;BME280;47978;49.118;12.146;2024-02-26T14:07:43;96025.63;;;9.30;64.17
62025;BME280;47978;49.118;12.146;2024-02-26T14:11:46;96007.53;;;9.20;65.04
62025;BME280;47978;49.118;12.146;2024-02-26T14:15:49;96008.38;;;9.12;66.54
62025;BME280;47978;49.118;12.146;2024-02-26T14:19:50;96015.63;;;8.87;67.67
62025;BME280;47978;49.118;12.146;2024-02-26T14:23:52;96005.81;;;8.77;68.95
62025;BME280;47978;49.118;12.146;2024-02-26T14:27:54;96013.34;;;8.60;69.71
62025;BME280;47978;49.118;12.146;2024-02-26T14:31:57;96017.44;;;8.83;69.90
62025;BME280;47978;49.118;12.146;2024-02-26T14:35:58;96025.06;;;8.86;69.52
62025;BME280;47978;49.118;12.146;2024-02-26T14:40:00;96028.69;;;8.69;70.64
62025;BME280;47978;49.118;12.146;2024-02-26T14:44:01;96034.88;;;8.66;70.57
62025;BME280;47978;49.118;12.146;2024-02-26T14:48:05;96033.72;;;8.67;69.74
62025;BME280;47978;49.118;12.146;2024-02-26T14:52:07;96043.22;;;8.23;71.92
62025;BME280;47978;49.118;12.146;2024-02-26T14:56:09;96033.47;;;8.34;72.33
62025;BME280;47978;49.118;12.146;2024-02-26T15:00:11;96027.34;;;8.28;72.47
62025;BME280;47978;49.118;12.146;2024-02-26T15:04:14;96043.84;;;8.28;72.51
62025;BME280;47978;49.118;12.146;2024-02-26T15:08:16;96044.16;;;8.36;72.45
62025;BME280;47978;49.118;12.146;2024-02-26T15:12:17;96044.53;;;7.91;74.64
62025;BME280;47978;49.118;12.146;2024-02-26T15:16:20;96054.41;;;8.09;74.49
62025;BME280;47978;49.118;12.146;2024-02-26T15:20:23;96054.72;;;7.99;74.84
62025;BME280;47978;49.118;12.146;2024-02-26T15:24:24;96058.63;;;7.89;75.19
62025;BME280;47978;49.118;12.146;2024-02-26T15:28:27;96060.56;;;7.71;76.62
62025;BME280;47978;49.118;12.146;2024-02-26T15:32:29;96065.25;;;7.62;77.06
62025;BME280;47978;49.118;12.146;2024-02-26T15:36:34;96066.22;;;7.57;77.69
62025;BME280;47978;49.118;12.146;2024-02-26T15:40:35;96060.06;;;7.52;77.98
62025;BME280;47978;49.118;12.146;2024-02-26T15:44:37;96068.97;;;7.40;79.52
62025;BME280;47978;49.118;12.146;2024-02-26T15:48:39;96078.47;;;7.34;79.62
62025;BME280;47978;49.118;12.146;2024-02-26T15:52:42;96088.50;;;7.38;80.15
62025;BME280;47978;49.118;12.146;2024-02-26T15:56:44;96098.56;;;7.52;79.27
62025;BME280;47978;49.118;12.146;2024-02-26T16:00:45;96106.75;;;7.26;80.31
62025;BME280;47978;49.118;12.146;2024-02-26T16:04:47;96113.78;;;7.49;79.89
62025;BME280;47978;49.118;12.146;2024-02-26T16:08:50;96128.34;;;7.58;80.10
62025;BME280;47978;49.118;12.146;2024-02-26T16:12:52;96139.06;;;7.77;79.53
62025;BME280;47978;49.118;12.146;2024-02-26T16:17:01;96143.72;;;7.59;79.64
62025;BME280;47978;49.118;12.146;2024-02-26T16:21:04;96149.09;;;7.16;82.13
62025;BME280;47978;49.118;12.146;2024-02-26T16:25:08;96151.66;;;7.12;81.64
62025;BME280;47978;49.118;12.146;2024-02-26T16:29:09;96160.63;;;6.95;82.60
62025;BME280;47978;49.118;12.146;2024-02-26T16:33:11;96163.72;;;7.03;82.91
62025;BME280;47978;49.118;12.146;2024-02-26T16:37:14;96168.97;;;6.82;83.92
62025;BME280;47978;49.118;12.146;2024-02-26T16:41:17;96163.97;;;6.84;84.18
62025;BME280;47978;49.118;12.146;2024-02-26T16:45:18;96165.53;;;6.76;84.10
62025;BME280;47978;49.118;12.146;2024-02-26T16:49:20;96171.28;;;6.66;84.53
62025;BME280;47978;49.118;12.146;2024-02-26T16:53:22;96169.38;;;6.44;85.98
62025;BME280;47978;49.118;12.146;2024-02-26T16:57:25;96166.78;;;6.02;88.06
62025;BME280;47978;49.118;12.146;2024-02-26T17:01:26;96174.13;;;6.29;86.75
62025;BME280;47978;49.118;12.146;2024-02-26T17:05:28;96176.19;;;6.46;86.03
62025;BME280;47978;49.118;12.146;2024-02-26T17:09:30;96179.41;;;6.26;85.59
62025;BME280;47978;49.118;12.146;2024-02-26T17:13:33;96175.81;;;6.03;86.30
62025;BME280;47978;49.118;12.146;2024-02-26T17:17:35;96174.81;;;5.85;86.92
62025;BME280;47978;49.118;12.146;2024-02-26T17:21:36;96179.41;;;5.76;87.96
62025;BME280;47978;49.118;12.146;2024-02-26T17:25:38;96179.00;;;5.96;86.90
62025;BME280;47978;49.118;12.146;2024-02-26T17:29:41;96188.88;;;5.83;86.71
62025;BME280;47978;49.118;12.146;2024-02-26T17:33:42;96188.97;;;5.78;86.70
62025;BME280;47978;49.118;12.146;2024-02-26T17:37:44;96195.28;;;5.51;87.71
62025;BME280;47978;49.118;12.146;2024-02-26T17:41:46;96204.50;;;5.69;87.27
62025;BME280;47978;49.118;12.146;2024-02-26T17:45:49;96206.47;;;5.41;88.50
62025;BME280;47978;49.118;12.146;2024-02-26T17:49:51;96204.63;;;5.50;87.94
62025;BME280;47978;49.118;12.146;2024-02-26T17:53:52;96211.00;;;5.59;87.92
62025;BME280;47978;49.118;12.146;2024-02-26T17:57:54;96214.47;;;5.51;87.62
62025;BME280;47978;49.118;12.146;2024-02-26T18:01:57;96221.59;;;5.52;87.73
62025;BME280;47978;49.118;12.146;2024-02-26T18:06:00;96231.00;;;5.46;88.57
62025;BME280;47978;49.118;12.146;2024-02-26T18:10:02;96233.34;;;5.80;86.80
62025;BME280;47978;49.118;12.146;2024-02-26T18:14:03;96225.63;;;5.69;87.01
62025;BME280;47978;49.118;12.146;2024-02-26T18:18:06;96240.06;;;5.60;86.97
62025;BME280;47978;49.118;12.146;2024-02-26T18:22:08;96243.69;;;5.28;88.83
62025;BME280;47978;49.118;12.146;2024-02-26T18:26:10;96240.06;;;5.33;88.29
62025;BME280;47978;49.118;12.146;2024-02-26T18:30:12;96236.63;;;5.41;87.66
62025;BME280;47978;49.118;12.146;2024-02-26T18:34:15;96244.50;;;5.01;89.50
62025;BME280;47978;49.118;12.146;2024-02-26T18:38:17;96249.00;;;5.38;88.17
62025;BME280;47978;49.118;12.146;2024-02-26T18:42:19;96248.41;;;5.41;87.76
62025;BME280;47978;49.118;12.146;2024-02-26T18:46:20;96256.38;;;5.10;88.93
62025;BME280;47978;49.118;12.146;2024-02-26T18:50:23;96262.09;;;4.95;90.28
62025;BME280;47978;49.118;12.146;2024-02-26T18:54:25;96267.91;;;4.74;91.48
62025;BME280;47978;49.118;12.146;2024-02-26T18:58:26;96275.59;;;5.38;88.33
62025;BME280;47978;49.118;12.146;2024-02-26T19:02:28;96281.09;;;5.38;87.75
62025;BME280;47978;49.118;12.146;2024-02-26T19:06:31;96288.47;;;5.24;88.13
62025;BME280;47978;49.118;12.146;2024-02-26T19:10:32;96295.50;;;4.97;90.12
62025;BME280;47978;49.118;12.146;2024-02-26T19:14:34;96298.47;;;5.14;89.18
62025;BME280;47978;49.118;12.146;2024-02-26T19:18:36;96302.31;;;5.00;89.54
62025;BME280;47978;49.118;12.146;2024-02-26T19:22:39;96305.59;;;4.83;91.04
62025;BME280;47978;49.118;12.146;2024-02-26T19:26:40;96304.78;;;4.82;91.48
62025;BME280;47978;49.118;12.146;2024-02-26T19:30:42;96307.09;;;5.08;89.85
62025;BME280;47978;49.118;12.146;2024-02-26T19:34:44;96311.72;;;4.93;90.55
62025;BME280;47978;49.118;12.146;2024-02-26T19:38:49;96319.22;;;4.88;90.81
62025;BME280;47978;49.118;12.146;2024-02-26T19:42:51;96331.31;;;5.01;90.29
62025;BME280;47978;49.118;12.146;2024-02-26T19:46:53;96332.63;;;4.70;91.63
62025;BME280;47978;49.118;12.146;2024-02-26T19:50:54;96341.63;;;4.90;91.19
62025;BME280;47978;49.118;12.146;2024-02-26T19:54:57;96344.84;;;4.78;91.95
62025;BME280;47978;49.118;12.146;2024-02-26T19:58:59;96342.09;;;4.78;91.92
62025;BME280;47978;49.118;12.146;2024-02-26T20:03:01;96346.06;;;4.86;91.59
62025;BME280;47978;49.118;12.146;2024-02-26T20:07:03;96352.59;;;4.71;91.42
62025;BME280;47978;49.118;12.146;2024-02-26T20:11:06;96350.66;;;4.34;93.41
62025;BME280;47978;49.118;12.146;2024-02-26T20:15:08;96348.31;;;4.46;92.85
62025;BME280;47978;49.118;12.146;2024-02-26T20:19:10;96349.94;;;4.85;91.65
62025;BME280;47978;49.118;12.146;2024-02-26T20:23:11;96345.06;;;4.82;90.70
62025;BME280;47978;49.118;12.146;2024-02-26T20:27:15;96359.34;;;4.79;92.26
62025;BME280;47978;49.118;12.146;2024-02-26T20:31:17;96358.53;;;4.59;92.29
62025;BME280;47978;49.118;12.146;2024-02-26T20:35:19;96361.75;;;4.80;91.07
62025;BME280;47978;49.118;12.146;2024-02-26T20:39:21;96375.47;;;4.80;91.20
62025;BME280;47978;49.118;12.146;2024-02-26T20:43:25;96382.78;;;4.47;94.18
62025;BME280;47978;49.118;12.146;2024-02-26T20:47:27;96401.69;;;4.43;93.69
62025;BME280;47978;49.118;12.146;2024-02-26T20:51:29;96396.03;;;4.78;92.56
62025;BME280;47978;49.118;12.146;2024-02-26T20:55:31;96390.41;;;4.88;91.31
62025;BME280;47978;49.118;12.146;2024-02-26T20:59:37;96384.09;;;4.31;94.23
62025;BME280;47978;49.118;12.146;2024-02-26T21:03:39;96393.06;;;4.36;95.14
62025;BME280;47978;49.118;12.146;2024-02-26T21:07:41;96407.16;;;4.43;93.73
62025;BME280;47978;49.118;12.146;2024-02-26T21:11:44;96414.69;;;4.57;93.14